createdAt,value
2019-05-14T00:00:52.304Z,2.10
2019-05-14T00:03:21.914Z,1.50
2019-05-14T00:05:51.758Z,2.03
2019-05-14T00:08:22.195Z,1.95
2019-05-14T00:10:52.000Z,2.37
2019-05-14T00:13:21.539Z,2.00
2019-05-14T00:15:51.968Z,2.00
2019-05-14T00:18:22.243Z,2.00
2019-05-14T00:20:51.199Z,1.52
2019-05-14T00:23:21.475Z,2.00
2019-05-14T00:28:15.528Z,1.95
2019-05-14T00:30:44.013Z,2.43
2019-05-14T00:33:12.473Z,2.20
2019-05-14T00:35:41.369Z,2.07
2019-05-14T00:38:11.851Z,2.50
2019-05-14T00:40:42.004Z,1.90
2019-05-14T00:43:11.390Z,2.40
2019-05-14T00:45:41.822Z,1.80
2019-05-14T00:48:10.041Z,1.90
2019-05-14T00:50:38.527Z,1.90
2019-05-14T00:53:06.989Z,2.45
2019-05-14T00:55:35.470Z,1.90
2019-05-14T00:58:03.921Z,2.02
2019-05-14T01:00:32.406Z,2.53
2019-05-14T01:03:01.969Z,1.82
2019-05-14T01:05:32.256Z,2.60
2019-05-14T01:08:01.909Z,2.65
2019-05-14T01:10:31.364Z,2.33
2019-05-14T01:13:01.161Z,2.55
2019-05-14T01:15:32.047Z,2.30
2019-05-14T01:18:02.131Z,2.37
2019-05-14T01:20:31.976Z,2.60
2019-05-14T01:23:02.316Z,2.05
2019-05-14T01:25:31.731Z,1.97
2019-05-14T01:28:02.186Z,2.90
2019-05-14T01:30:31.996Z,2.20
2019-05-14T01:33:01.734Z,2.65
2019-05-14T01:35:31.565Z,2.43
2019-05-14T01:38:02.405Z,2.35
2019-05-14T01:40:31.473Z,2.70
2019-05-14T01:43:02.408Z,2.30
2019-05-14T01:45:31.668Z,2.30
2019-05-14T01:48:01.189Z,2.25
2019-05-14T01:50:32.006Z,1.80
2019-05-14T01:53:01.213Z,2.08
2019-05-14T01:55:32.250Z,2.10
2019-05-14T01:58:02.123Z,2.67
2019-05-14T02:00:31.433Z,2.70
2019-05-14T02:03:01.860Z,1.95
2019-05-14T02:05:31.052Z,2.33
2019-05-14T02:08:01.795Z,2.22
2019-05-14T02:10:31.529Z,2.63
2019-05-14T02:13:01.984Z,2.08
2019-05-14T02:15:39.084Z,2.33
2019-05-14T02:18:02.395Z,2.12
2019-05-14T02:20:32.113Z,2.00
2019-05-14T02:23:01.557Z,2.50
2019-05-14T02:25:32.108Z,2.40
2019-05-14T02:28:01.364Z,2.05
2019-05-14T02:30:45.811Z,2.17
2019-05-14T02:33:00.098Z,2.35
2019-05-14T02:35:29.819Z,2.20
2019-05-14T02:37:59.605Z,2.20
2019-05-14T02:40:29.509Z,2.47
2019-05-14T02:42:59.317Z,2.47
2019-05-14T02:45:30.238Z,3.20
2019-05-14T02:48:00.442Z,2.62
2019-05-14T02:50:29.513Z,2.40
2019-05-14T02:52:59.818Z,2.67
2019-05-14T02:55:29.835Z,1.90
2019-05-14T02:57:59.738Z,2.25
2019-05-14T03:00:30.078Z,2.10
2019-05-14T03:02:59.914Z,2.20
2019-05-14T03:05:29.510Z,2.03
2019-05-14T03:07:59.846Z,2.98
2019-05-14T03:10:30.250Z,2.40
2019-05-14T03:12:59.133Z,2.50
2019-05-14T03:15:29.248Z,2.93
2019-05-14T03:17:59.865Z,2.65
2019-05-14T03:20:28.834Z,2.87
2019-05-14T03:23:05.204Z,2.50
2019-05-14T03:25:30.049Z,2.50
2019-05-14T03:27:59.921Z,2.67
2019-05-14T03:30:32.549Z,3.00
2019-05-14T03:33:02.792Z,2.40
2019-05-14T03:35:40.779Z,2.20
2019-05-14T03:38:00.404Z,2.10
2019-05-14T03:40:29.422Z,2.20
2019-05-14T03:42:59.793Z,2.25
2019-05-14T03:45:30.086Z,2.53
2019-05-14T03:47:58.956Z,2.60
2019-05-14T03:50:29.695Z,2.80
2019-05-14T03:52:59.383Z,3.30
2019-05-14T03:55:29.310Z,2.60
2019-05-14T03:57:59.456Z,2.25
2019-05-14T04:00:50.469Z,2.80
2019-05-14T04:03:19.978Z,2.67
2019-05-14T04:05:49.929Z,2.53
2019-05-14T04:08:21.486Z,2.60
2019-05-14T04:10:53.652Z,3.60
2019-05-14T04:13:20.291Z,2.65
2019-05-14T04:15:49.757Z,3.23
2019-05-14T04:18:20.170Z,2.90
2019-05-14T04:20:50.250Z,3.07
2019-05-14T04:23:20.554Z,3.75
2019-05-14T04:25:51.950Z,3.13
2019-05-14T04:28:21.647Z,3.05
2019-05-14T04:30:55.188Z,2.57
2019-05-14T04:33:25.360Z,3.22
2019-05-14T04:35:55.281Z,2.47
2019-05-14T04:38:23.811Z,2.80
2019-05-14T04:40:52.530Z,2.90
2019-05-14T04:43:21.055Z,3.05
2019-05-14T04:45:50.016Z,3.10
2019-05-14T04:48:31.045Z,3.37
2019-05-14T04:50:49.729Z,3.13
2019-05-14T04:53:19.494Z,2.80
2019-05-14T04:55:49.497Z,2.60
2019-05-14T04:58:21.664Z,2.40
2019-05-14T05:00:49.917Z,2.70
2019-05-14T05:03:19.953Z,2.50
2019-05-14T05:05:49.995Z,3.40
2019-05-14T05:08:19.907Z,2.98
2019-05-14T05:10:49.533Z,3.27
2019-05-14T05:13:18.550Z,2.92
2019-05-14T05:15:48.632Z,2.80
2019-05-14T05:18:18.622Z,2.42
2019-05-14T05:20:50.232Z,2.70
2019-05-14T05:23:18.972Z,2.42
2019-05-14T05:25:49.063Z,2.67
2019-05-14T05:28:19.102Z,2.60
2019-05-14T05:30:49.053Z,2.70
2019-05-14T05:33:18.794Z,2.90
2019-05-14T05:35:48.672Z,3.30
2019-05-14T05:38:18.359Z,2.05
2019-05-14T05:40:48.628Z,2.57
2019-05-14T05:43:19.164Z,2.80
2019-05-14T05:45:48.566Z,2.50
2019-05-14T05:48:18.777Z,2.10
2019-05-14T05:50:48.481Z,2.57
2019-05-14T05:53:19.267Z,2.20
2019-05-14T05:55:48.440Z,2.53
2019-05-14T05:58:19.520Z,2.60
2019-05-14T06:00:49.790Z,2.63
2019-05-14T06:03:20.644Z,2.70
2019-05-14T06:05:49.246Z,2.40
2019-05-14T06:08:18.861Z,2.70
2019-05-14T06:10:48.970Z,8.03
2019-05-14T06:13:18.246Z,9.00
2019-05-14T06:15:49.370Z,10.17
2019-05-14T06:18:19.557Z,5.08
2019-05-14T06:20:49.220Z,2.70
2019-05-14T06:23:18.897Z,2.42
2019-05-14T06:25:49.247Z,2.27
2019-05-14T06:28:20.806Z,2.20
2019-05-14T06:30:48.443Z,2.40
2019-05-14T06:33:19.405Z,1.85
2019-05-14T06:35:48.552Z,2.20
2019-05-14T06:38:18.563Z,2.17
2019-05-14T06:40:48.947Z,1.93
2019-05-14T06:43:18.950Z,2.10
2019-05-14T06:45:49.619Z,2.10
2019-05-14T06:48:29.783Z,1.80
2019-05-14T06:50:50.229Z,2.53
2019-05-14T06:53:19.413Z,1.80
2019-05-14T06:55:48.454Z,2.17
2019-05-14T06:58:20.251Z,1.90
2019-05-14T07:00:49.361Z,1.67
2019-05-14T07:03:18.038Z,2.00
2019-05-14T07:05:49.119Z,2.00
2019-05-14T07:08:18.650Z,1.72
2019-05-14T07:10:48.585Z,1.70
2019-05-14T07:13:18.895Z,1.90
2019-05-14T07:15:48.911Z,5.80
2019-05-14T07:18:19.087Z,4.03
2019-05-14T07:20:48.486Z,2.37
2019-05-14T07:23:19.452Z,2.05
2019-05-14T07:25:48.322Z,1.67
2019-05-14T07:28:19.162Z,2.20
2019-05-14T07:30:48.531Z,2.10
2019-05-14T07:33:18.296Z,2.00
2019-05-14T07:35:48.854Z,2.15
2019-05-14T07:38:19.393Z,2.02
2019-05-14T07:40:49.484Z,2.30
2019-05-14T07:43:18.886Z,2.20
2019-05-14T07:45:49.158Z,2.23
2019-05-14T07:48:19.013Z,1.95
2019-05-14T07:50:51.639Z,2.10
2019-05-14T07:53:18.038Z,2.15
2019-05-14T07:55:49.041Z,1.70
2019-05-14T07:58:19.600Z,1.70
2019-05-14T08:00:49.159Z,1.60
2019-05-14T08:03:19.059Z,1.75
2019-05-14T08:05:48.288Z,1.77
2019-05-14T08:08:18.706Z,2.02
2019-05-14T08:10:48.768Z,3.85
2019-05-14T08:13:19.062Z,1.40
2019-05-14T08:15:48.981Z,2.45
2019-05-14T08:18:18.858Z,1.92
2019-05-14T08:20:48.676Z,1.27
2019-05-14T08:23:18.449Z,1.80
2019-05-14T08:25:48.118Z,2.30
2019-05-14T08:28:18.460Z,1.90
2019-05-14T08:30:48.897Z,2.50
2019-05-14T08:33:18.438Z,2.05
2019-05-14T08:35:48.864Z,2.03
2019-05-14T08:38:18.498Z,1.57
2019-05-14T08:40:48.852Z,1.80
2019-05-14T08:43:18.483Z,1.70
2019-05-14T08:45:48.692Z,1.60
2019-05-14T08:48:19.080Z,1.60
2019-05-14T08:50:48.198Z,1.80
2019-05-14T08:53:18.628Z,1.42
2019-05-14T08:55:48.807Z,1.73
2019-05-14T08:58:20.111Z,1.92
2019-05-14T09:00:48.270Z,1.53
2019-05-14T09:03:19.046Z,3.98
2019-05-14T09:05:49.002Z,3.30
2019-05-14T09:08:19.201Z,1.70
2019-05-14T09:10:49.675Z,1.80
2019-05-14T09:13:18.437Z,1.87
2019-05-14T09:15:48.937Z,1.80
2019-05-14T09:18:18.469Z,1.65
2019-05-14T09:20:48.834Z,1.57
2019-05-14T09:23:19.013Z,1.95
2019-05-14T09:25:52.352Z,1.90
2019-05-14T09:28:18.849Z,1.52
2019-05-14T09:30:48.748Z,1.85
2019-05-14T09:33:19.008Z,1.82
2019-05-14T09:35:49.279Z,2.40
2019-05-14T09:38:18.817Z,1.90
2019-05-14T09:40:48.907Z,1.40
2019-05-14T09:43:18.094Z,1.70
2019-05-14T09:45:48.207Z,1.70
2019-05-14T09:48:18.079Z,2.80
2019-05-14T09:50:48.762Z,1.83
2019-05-14T09:53:18.168Z,3.00
2019-05-14T09:55:48.935Z,2.90
2019-05-14T09:58:19.990Z,1.90
2019-05-14T10:00:48.544Z,1.87
2019-05-14T10:03:19.234Z,2.00
2019-05-14T10:05:49.981Z,1.90
2019-05-14T10:08:19.347Z,2.33
2019-05-14T10:10:48.820Z,1.73
2019-05-14T10:13:17.488Z,1.70
2019-05-14T10:15:48.447Z,1.50
2019-05-14T10:18:16.079Z,2.17
2019-05-14T10:20:45.912Z,1.90
2019-05-14T10:23:14.680Z,1.77
2019-05-14T10:25:43.179Z,1.80
2019-05-14T10:28:11.642Z,1.30
2019-05-14T10:30:40.135Z,1.90
2019-05-14T10:33:14.519Z,1.97
2019-05-14T10:35:39.247Z,2.13
2019-05-14T10:38:08.758Z,1.77
2019-05-14T10:40:38.402Z,1.92
2019-05-14T10:43:09.156Z,1.40
2019-05-14T10:45:38.487Z,1.80
2019-05-14T10:48:09.520Z,1.90
2019-05-14T10:50:55.122Z,1.37
2019-05-14T10:53:08.979Z,1.43
2019-05-14T10:55:38.638Z,1.53
2019-05-14T10:58:08.964Z,1.60
2019-05-14T11:00:41.476Z,1.70
2019-05-14T11:03:07.690Z,1.60
2019-05-14T11:05:41.157Z,1.13
2019-05-14T11:08:06.354Z,1.90
2019-05-14T11:10:34.821Z,1.53
2019-05-14T11:13:03.274Z,1.63
2019-05-14T11:15:31.834Z,1.30
2019-05-14T11:18:00.303Z,1.70
2019-05-14T11:20:31.105Z,1.43
2019-05-14T11:22:59.043Z,1.63
2019-05-14T11:25:28.782Z,1.80
2019-05-14T11:27:58.603Z,1.40
2019-05-14T11:30:28.851Z,1.30
2019-05-14T11:32:58.410Z,1.40
2019-05-14T11:35:28.814Z,1.60
2019-05-14T11:37:58.854Z,1.20
2019-05-14T11:40:29.300Z,1.30
2019-05-14T11:42:59.177Z,2.23
2019-05-14T11:45:27.751Z,2.57
2019-05-14T11:47:58.202Z,1.33
2019-05-14T11:50:28.750Z,1.43
2019-05-14T11:52:58.477Z,1.80
2019-05-14T11:55:26.655Z,1.93
2019-05-14T11:57:55.125Z,1.43
2019-05-14T12:00:25.908Z,1.30
2019-05-14T12:02:53.796Z,1.03
2019-05-14T12:05:22.285Z,0.90
2019-05-14T12:07:51.216Z,1.30
2019-05-14T12:10:20.013Z,1.20
2019-05-14T12:12:49.201Z,0.97
2019-05-14T12:15:18.747Z,1.10
2019-05-14T12:17:51.099Z,1.37
2019-05-14T12:20:17.781Z,1.22
2019-05-14T12:22:48.508Z,1.00
2019-05-14T12:25:18.917Z,1.17
2019-05-14T12:27:49.628Z,1.30
2019-05-14T12:30:19.557Z,1.00
2019-05-14T12:32:49.343Z,1.10
2019-05-14T12:35:19.813Z,1.57
2019-05-14T12:37:47.727Z,1.10
2019-05-14T12:40:16.280Z,1.13
2019-05-14T12:42:44.771Z,1.00
2019-05-14T12:45:13.294Z,1.13
2019-05-14T12:47:41.894Z,1.30
2019-05-14T12:50:11.789Z,5.50
2019-05-14T12:52:40.303Z,3.10
2019-05-14T12:55:09.448Z,1.30
2019-05-14T12:57:39.362Z,1.23
2019-05-14T13:00:09.027Z,0.80
2019-05-14T13:02:37.593Z,1.20
2019-05-14T13:05:08.928Z,0.80
2019-05-14T13:07:41.542Z,0.80
2019-05-14T13:10:09.151Z,0.90
2019-05-14T13:12:39.132Z,1.20
2019-05-14T13:15:08.829Z,1.10
2019-05-14T13:17:38.995Z,1.07
2019-05-14T13:20:13.200Z,1.00
2019-05-14T13:22:45.607Z,0.83
2019-05-14T13:25:10.325Z,0.90
2019-05-14T13:27:39.343Z,1.10
2019-05-14T13:30:09.049Z,1.27
2019-05-14T13:32:39.430Z,1.00
2019-05-14T13:35:12.625Z,0.97
2019-05-14T13:37:39.828Z,0.80
2019-05-14T13:40:09.384Z,1.00
2019-05-14T13:42:39.911Z,1.30
2019-05-14T13:45:10.336Z,1.23
2019-05-14T13:47:38.898Z,1.10
2019-05-14T13:50:08.481Z,1.30
2019-05-14T13:52:40.354Z,6.40
2019-05-14T13:55:09.777Z,3.67
2019-05-14T13:57:39.960Z,1.93
2019-05-14T14:00:11.926Z,2.10
2019-05-14T14:02:39.637Z,2.27
2019-05-14T14:05:08.716Z,1.10
2019-05-14T14:07:39.457Z,1.23
2019-05-14T14:10:09.043Z,1.33
2019-05-14T14:12:40.477Z,1.30
2019-05-14T14:15:09.564Z,1.10
2019-05-14T14:17:39.401Z,0.83
2019-05-14T14:20:08.460Z,1.10
2019-05-14T14:22:39.962Z,1.10
2019-05-14T14:25:08.914Z,1.00
2019-05-14T14:27:40.816Z,1.17
2019-05-14T14:30:09.248Z,1.40
2019-05-14T14:32:40.517Z,1.13
2019-05-14T14:35:08.868Z,1.53
2019-05-14T14:37:39.643Z,1.30
2019-05-14T14:40:10.586Z,1.27
2019-05-14T14:42:40.013Z,1.20
2019-05-14T14:45:09.478Z,1.10
2019-05-14T14:47:39.404Z,1.60
2019-05-14T14:50:08.972Z,1.10
2019-05-14T14:52:37.525Z,0.80
2019-05-14T14:55:06.327Z,1.23
2019-05-14T14:57:34.829Z,1.00
2019-05-14T15:00:03.364Z,1.20
2019-05-14T15:02:31.816Z,1.40
2019-05-14T15:05:00.318Z,1.37
2019-05-14T15:07:30.197Z,2.50
2019-05-14T15:09:59.591Z,8.10
2019-05-14T15:12:29.131Z,2.80
2019-05-14T15:14:59.400Z,1.30
2019-05-14T15:17:29.530Z,1.37
2019-05-14T15:19:59.533Z,1.20
2019-05-14T15:22:30.913Z,2.10
2019-05-14T15:24:58.701Z,2.60
2019-05-14T15:27:28.279Z,1.73
2019-05-14T15:29:59.146Z,1.17
2019-05-14T15:32:30.010Z,1.43
2019-05-14T15:34:59.338Z,1.57
2019-05-14T15:37:28.659Z,1.00
2019-05-14T15:39:57.422Z,0.80
2019-05-14T15:42:28.149Z,1.40
2019-05-14T15:44:59.615Z,1.13
2019-05-14T15:47:26.130Z,1.17
2019-05-14T15:49:54.634Z,1.10
2019-05-14T15:52:23.093Z,1.10
2019-05-14T15:54:51.585Z,1.40
2019-05-14T15:57:20.069Z,1.13
2019-05-14T15:59:48.560Z,1.00
2019-05-14T16:02:19.887Z,1.07
2019-05-14T16:04:47.169Z,1.17
2019-05-14T16:07:18.456Z,1.13
2019-05-14T16:09:45.782Z,0.80
2019-05-14T16:12:14.255Z,1.30
2019-05-14T16:14:42.743Z,1.10
2019-05-14T16:17:12.812Z,0.90
2019-05-14T16:19:41.359Z,0.83
2019-05-14T16:22:10.015Z,1.40
2019-05-14T16:24:53.016Z,0.97
2019-05-14T16:27:08.616Z,1.10
2019-05-14T16:29:44.818Z,0.87
2019-05-14T16:32:08.417Z,1.20
2019-05-14T16:34:40.719Z,1.33
2019-05-14T16:37:11.084Z,1.10
2019-05-14T16:39:39.188Z,1.00
2019-05-14T16:42:07.654Z,1.10
2019-05-14T16:44:36.150Z,0.60
2019-05-14T16:47:04.614Z,0.87
2019-05-14T16:49:34.125Z,1.10
2019-05-14T16:52:02.663Z,1.00
2019-05-14T16:54:31.152Z,0.90
2019-05-14T16:56:59.609Z,1.03
2019-05-14T16:59:29.503Z,1.20
2019-05-14T17:01:58.589Z,0.90
2019-05-14T17:04:29.374Z,1.00
2019-05-14T17:06:58.940Z,1.03
2019-05-14T17:09:28.187Z,0.97
2019-05-14T17:11:58.831Z,0.87
2019-05-14T17:14:29.299Z,1.00
2019-05-14T17:16:59.342Z,1.00
2019-05-14T17:19:29.621Z,0.90
2019-05-14T17:21:59.390Z,5.40
2019-05-14T17:24:29.188Z,3.33
2019-05-14T17:26:58.290Z,1.37
2019-05-14T17:29:28.640Z,1.13
2019-05-14T17:31:57.044Z,1.30
2019-05-14T17:34:25.499Z,1.20
2019-05-14T17:36:54.006Z,1.10
2019-05-14T17:39:22.457Z,1.10
2019-05-14T17:41:50.941Z,1.00
2019-05-14T17:44:19.414Z,0.90
2019-05-14T17:46:48.907Z,0.97
2019-05-14T17:49:19.189Z,0.80
2019-05-14T17:51:48.502Z,0.90
2019-05-14T17:54:18.505Z,1.10
2019-05-14T17:56:48.613Z,0.90
2019-05-14T17:59:19.109Z,0.97
2019-05-14T18:01:47.362Z,1.00
2019-05-14T18:04:18.222Z,1.00
2019-05-14T18:06:48.627Z,0.90
2019-05-14T18:09:16.077Z,0.90
2019-05-14T18:11:44.641Z,1.00
2019-05-14T18:14:13.101Z,0.90
2019-05-14T18:16:41.587Z,1.10
2019-05-14T18:19:10.078Z,1.30
2019-05-14T18:21:38.965Z,1.03
2019-05-14T18:24:07.503Z,0.97
2019-05-14T18:26:35.995Z,0.90
2019-05-14T18:29:04.679Z,0.93
2019-05-14T18:31:33.277Z,1.00
2019-05-14T18:34:01.773Z,0.97
2019-05-14T18:36:30.268Z,1.10
2019-05-14T18:38:58.873Z,0.90
2019-05-14T18:41:29.358Z,0.90
2019-05-14T18:43:58.767Z,1.07
2019-05-14T18:46:28.524Z,1.00
2019-05-14T18:48:59.222Z,1.10
2019-05-14T18:51:28.754Z,0.90
2019-05-14T18:53:58.476Z,1.13
2019-05-14T18:56:29.289Z,1.07
2019-05-14T18:58:57.233Z,1.20
2019-05-14T19:01:28.627Z,1.03
2019-05-14T19:03:55.769Z,0.97
2019-05-14T19:06:24.272Z,0.97
2019-05-14T19:08:52.721Z,1.00
2019-05-14T19:11:21.195Z,1.30
2019-05-14T19:13:49.694Z,1.00
2019-05-14T19:16:18.163Z,1.10
2019-05-14T19:18:48.742Z,1.00
2019-05-14T19:21:16.771Z,1.17
2019-05-14T19:23:45.428Z,1.03
2019-05-14T19:26:13.824Z,1.55
2019-05-14T19:28:42.321Z,1.13
2019-05-14T19:31:10.785Z,1.60
2019-05-14T19:33:39.286Z,1.47
2019-05-14T19:36:08.774Z,1.50
2019-05-14T19:38:38.953Z,1.30
2019-05-14T19:41:08.625Z,1.63
2019-05-14T19:43:37.322Z,1.37
2019-05-14T19:46:05.783Z,1.50
2019-05-14T19:48:34.286Z,1.20
2019-05-14T19:51:02.914Z,1.40
2019-05-14T19:53:31.404Z,1.63
2019-05-14T19:55:59.866Z,1.50
2019-05-14T19:58:29.248Z,1.37
2019-05-14T20:00:57.883Z,2.17
2019-05-14T20:03:28.965Z,1.40
2019-05-14T20:05:56.479Z,1.40
2019-05-14T20:08:24.978Z,1.30
2019-05-14T20:10:53.440Z,1.60
2019-05-14T20:13:21.932Z,1.20
2019-05-14T20:15:50.404Z,1.37
2019-05-14T20:18:18.914Z,1.33
2019-05-14T20:20:49.314Z,1.10
2019-05-14T20:23:18.531Z,1.10
2019-05-14T20:25:48.154Z,1.63
2019-05-14T20:28:18.871Z,1.50
2019-05-14T20:30:49.194Z,1.20
2019-05-14T20:33:19.005Z,1.80
2019-05-14T20:35:48.520Z,1.00
2019-05-14T20:38:18.476Z,1.03
2019-05-14T20:40:48.768Z,1.10
2019-05-14T20:43:18.484Z,1.37
2019-05-14T20:45:48.836Z,1.20
2019-05-14T20:48:18.816Z,1.50
2019-05-14T20:50:47.544Z,1.30
2019-05-14T20:53:18.269Z,1.20
2019-05-14T20:55:46.148Z,1.60
2019-05-14T20:58:14.641Z,1.43
2019-05-14T21:00:43.103Z,1.37
2019-05-14T21:03:11.598Z,1.52
2019-05-14T21:05:42.319Z,1.17
2019-05-14T21:08:13.529Z,1.98
2019-05-14T21:10:40.318Z,1.50
2019-05-14T21:13:08.839Z,1.50
2019-05-14T21:15:39.186Z,1.40
2019-05-14T21:18:08.373Z,1.27
2019-05-14T21:20:39.111Z,1.30
2019-05-14T21:23:09.011Z,1.55
2019-05-14T21:25:38.739Z,1.27
2019-05-14T21:28:09.371Z,1.20
2019-05-14T21:30:38.878Z,1.43
2019-05-14T21:33:08.423Z,1.50
2019-05-14T21:35:38.934Z,1.47
2019-05-14T21:38:09.114Z,1.70
2019-05-14T21:40:38.958Z,1.70
2019-05-14T21:43:10.945Z,1.60
2019-05-14T21:45:38.390Z,1.87
2019-05-14T21:48:08.670Z,1.45
2019-05-14T21:50:38.870Z,1.80
2019-05-14T21:53:08.397Z,1.62
2019-05-14T21:55:38.826Z,1.93
2019-05-14T21:58:09.058Z,1.75
2019-05-14T22:00:43.184Z,2.13
2019-05-14T22:03:11.693Z,1.80
2019-05-14T22:05:40.185Z,2.27
2019-05-14T22:08:08.940Z,2.05
2019-05-14T22:10:39.864Z,1.60
2019-05-14T22:13:07.700Z,2.15
2019-05-14T22:15:38.661Z,1.90
2019-05-14T22:18:16.518Z,2.27
2019-05-14T22:20:38.636Z,2.10
2019-05-14T22:23:08.817Z,2.10
2019-05-14T22:25:39.180Z,2.27
2019-05-14T22:28:14.203Z,2.70
2019-05-14T22:30:38.880Z,2.27
2019-05-14T22:33:08.553Z,2.33
2019-05-14T22:35:39.494Z,2.50
2019-05-14T22:38:07.367Z,2.15
2019-05-14T22:40:35.850Z,1.87
2019-05-14T22:43:04.399Z,2.17
2019-05-14T22:45:32.913Z,1.93
2019-05-14T22:48:01.382Z,1.80
2019-05-14T22:50:29.974Z,2.00
2019-05-14T22:52:58.732Z,1.67
2019-05-14T22:55:29.025Z,2.10
2019-05-14T22:57:59.342Z,2.10
2019-05-14T23:00:28.562Z,2.33
2019-05-14T23:02:57.266Z,1.80
2019-05-14T23:05:25.759Z,2.17
2019-05-14T23:07:54.219Z,2.20
2019-05-14T23:10:22.725Z,2.10
2019-05-14T23:12:51.183Z,1.80
2019-05-14T23:15:19.698Z,2.42
2019-05-14T23:17:48.214Z,2.10
2019-05-14T23:20:19.388Z,2.05
2019-05-14T23:22:48.986Z,2.00
2019-05-14T23:25:18.474Z,2.02
2019-05-14T23:27:48.096Z,1.80
2019-05-14T23:30:19.943Z,1.97
2019-05-14T23:32:48.988Z,2.17
2019-05-14T23:35:18.867Z,1.90
2019-05-14T23:37:48.930Z,1.92
2019-05-14T23:40:17.637Z,2.07
2019-05-14T23:42:48.766Z,1.90
2019-05-14T23:45:16.230Z,2.08
2019-05-14T23:47:45.315Z,2.87
2019-05-14T23:50:13.913Z,2.15
2019-05-14T23:52:42.472Z,2.60
2019-05-14T23:55:11.362Z,2.98
2019-05-14T23:57:39.916Z,2.75
